Time;durP1;ratioP1;P1;durP2;ratioP2;P2;SDS_P1;SDS_P2;PMS_P1;PMS_P2;Temp;Humidity;BMP_temperature;BMP_pressure;BME280_temperature;BME280_humidity;BME280_pressure;Samples;Min_cycle;Max_cycle;Signal;HPM_P1;HPM_P2
2021/09/16 00:00:47;;;;;;;2.40;1.10;;;22.50;45.10;;;;;;5043073;28;20603;-24
2021/09/16 00:03:22;;;;;;;2.03;1.50;;;22.50;43.70;;;;;;5042597;28;20485;-24
2021/09/16 00:05:56;;;;;;;1.07;0.90;;;22.40;45.60;;;;;;5042146;28;20523;-25
2021/09/16 00:08:27;;;;;;;1.47;0.70;;;22.30;44.30;;;;;;5043695;28;20476;-25
2021/09/16 00:10:58;;;;;;;1.80;1.10;;;22.20;45.60;;;;;;5028146;28;20435;-24
2021/09/16 00:13:29;;;;;;;2.10;1.17;;;22.10;45.00;;;;;;5043657;28;20476;-25
2021/09/16 00:16:00;;;;;;;1.30;1.10;;;22.00;46.40;;;;;;5042823;28;20453;-25
2021/09/16 00:18:33;;;;;;;2.20;1.20;;;22.10;45.50;;;;;;5044110;28;20460;-25
2021/09/16 00:21:04;;;;;;;2.00;0.93;;;22.10;46.00;;;;;;5039141;28;20457;-25
2021/09/16 00:23:35;;;;;;;1.93;0.90;;;22.10;46.90;;;;;;5040583;28;20504;-25
2021/09/16 00:26:06;;;;;;;1.33;0.87;;;22.00;47.20;;;;;;5043234;28;20464;-25
2021/09/16 00:28:37;;;;;;;1.70;1.07;;;22.00;46.10;;;;;;5043379;28;20885;-25
2021/09/16 00:31:08;;;;;;;2.00;1.17;;;21.80;47.20;;;;;;5041569;28;20465;-25
2021/09/16 00:33:41;;;;;;;1.20;1.10;;;21.60;47.10;;;;;;5043788;28;20467;-25
2021/09/16 00:36:12;;;;;;;1.40;1.00;;;21.50;47.50;;;;;;5043055;28;20449;-25
2021/09/16 00:38:43;;;;;;;1.13;0.90;;;21.30;47.30;;;;;;5043912;28;20841;-25
2021/09/16 00:41:14;;;;;;;2.10;1.10;;;21.30;47.30;;;;;;5042676;28;20445;-25
2021/09/16 00:43:47;;;;;;;2.53;1.30;;;21.10;46.70;;;;;;5043607;28;20638;-25
2021/09/16 00:46:18;;;;;;;1.70;1.00;;;20.80;47.70;;;;;;5042198;28;20544;-24
2021/09/16 00:48:51;;;;;;;3.43;1.00;;;20.60;48.10;;;;;;5044147;28;20535;-24
2021/09/16 00:51:22;;;;;;;2.50;1.37;;;20.50;49.20;;;;;;5042665;28;20456;-25
2021/09/16 00:53:55;;;;;;;1.20;1.10;;;20.40;48.90;;;;;;5043501;28;20468;-25
2021/09/16 00:56:27;;;;;;;2.40;1.10;;;20.30;49.10;;;;;;5042024;28;20461;-25
2021/09/16 00:59:01;;;;;;;2.23;1.10;;;20.20;49.40;;;;;;5042964;28;20542;-25
2021/09/16 01:01:34;;;;;;;4.23;1.50;;;20.20;50.60;;;;;;5041476;28;20473;-24
2021/09/16 01:04:06;;;;;;;1.93;1.30;;;20.10;50.10;;;;;;5037685;28;20470;-24
2021/09/16 01:06:38;;;;;;;2.00;1.77;;;20.00;50.00;;;;;;5042487;28;20443;-24
2021/09/16 01:09:11;;;;;;;2.77;1.50;;;19.90;49.60;;;;;;5040586;28;20676;-24
2021/09/16 01:11:42;;;;;;;3.00;1.80;;;19.80;50.00;;;;;;5041651;28;20431;-24
2021/09/16 01:14:13;;;;;;;2.00;1.50;;;19.70;50.00;;;;;;5042877;28;20472;-24
2021/09/16 01:16:43;;;;;;;4.30;3.17;;;19.60;50.20;;;;;;5041605;28;20420;-24
2021/09/16 01:19:16;;;;;;;5.07;3.60;;;19.50;50.30;;;;;;5034014;28;20423;-24
2021/09/16 01:21:47;;;;;;;5.27;2.27;;;19.50;50.50;;;;;;5042048;28;20498;-24
2021/09/16 01:24:20;;;;;;;5.90;3.80;;;19.40;50.50;;;;;;5042550;28;20519;-24
2021/09/16 01:26:51;;;;;;;12.23;6.40;;;19.30;50.90;;;;;;5041940;28;20453;-25
2021/09/16 01:29:22;;;;;;;3.47;2.03;;;19.30;51.00;;;;;;5038612;28;20823;-24
2021/09/16 01:31:53;;;;;;;1.97;1.00;;;19.20;50.70;;;;;;5037437;28;20541;-25
2021/09/16 01:34:24;;;;;;;2.30;0.90;;;19.10;50.10;;;;;;5041803;28;20440;-25
2021/09/16 01:36:55;;;;;;;1.70;1.00;;;18.90;49.40;;;;;;5041741;28;20451;-25
2021/09/16 01:39:28;;;;;;;1.40;1.10;;;18.80;49.30;;;;;;5042670;28;20461;-25
2021/09/16 01:41:59;;;;;;;1.63;1.07;;;18.70;48.80;;;;;;5041961;28;20449;-25
2021/09/16 01:44:31;;;;;;;2.03;1.33;;;18.60;49.60;;;;;;5041465;28;20492;-24
2021/09/16 01:47:02;;;;;;;2.30;1.00;;;18.60;48.50;;;;;;5037221;28;20469;-25
2021/09/16 01:49:33;;;;;;;3.13;1.20;;;18.50;48.30;;;;;;5042764;28;20478;-24
2021/09/16 01:52:04;;;;;;;1.40;1.30;;;18.30;48.20;;;;;;5041884;28;20454;-24
2021/09/16 01:54:37;;;;;;;1.67;1.07;;;18.30;48.50;;;;;;5042553;28;20476;-24
2021/09/16 01:57:08;;;;;;;2.00;1.20;;;18.20;48.80;;;;;;5036335;28;20443;-24
2021/09/16 01:59:39;;;;;;;3.90;1.50;;;18.10;49.00;;;;;;5041865;28;20420;-24
2021/09/16 02:02:11;;;;;;;5.93;2.73;;;18.00;49.00;;;;;;5039944;28;20857;-25
2021/09/16 02:04:41;;;;;;;2.47;1.00;;;17.90;49.20;;;;;;5027457;28;20447;-24
2021/09/16 02:07:12;;;;;;;1.53;0.97;;;17.90;49.50;;;;;;5041274;28;20439;-24
2021/09/16 02:09:45;;;;;;;2.77;0.97;;;17.70;49.40;;;;;;5041928;28;20451;-24
2021/09/16 02:12:17;;;;;;;1.33;0.90;;;17.60;50.10;;;;;;5041857;28;20473;-24
2021/09/16 02:14:48;;;;;;;1.47;0.60;;;17.60;50.60;;;;;;5042363;28;20975;-24
2021/09/16 02:17:19;;;;;;;1.50;0.93;;;17.40;51.10;;;;;;5039384;28;20449;-24
2021/09/16 02:19:50;;;;;;;1.80;0.97;;;17.40;51.50;;;;;;5040028;28;20434;-24
2021/09/16 02:22:21;;;;;;;1.50;0.80;;;17.30;52.00;;;;;;5041681;28;20928;-24
2021/09/16 02:24:53;;;;;;;4.20;1.00;;;17.20;52.30;;;;;;5040460;28;20537;-25
2021/09/16 02:27:24;;;;;;;1.70;0.80;;;17.00;52.20;;;;;;5041730;28;20460;-25
2021/09/16 02:29:55;;;;;;;2.00;0.90;;;17.00;52.40;;;;;;5040758;28;20416;-25
2021/09/16 02:32:26;;;;;;;1.70;1.03;;;16.90;52.60;;;;;;5039459;28;20449;-25
2021/09/16 02:34:57;;;;;;;2.47;1.13;;;16.80;52.50;;;;;;5037941;28;20540;-25
2021/09/16 02:37:28;;;;;;;2.43;1.40;;;16.80;52.90;;;;;;5038450;28;20492;-25
2021/09/16 02:40:01;;;;;;;2.57;1.00;;;16.70;53.10;;;;;;5040710;28;20460;-24
2021/09/16 02:42:32;;;;;;;1.70;0.90;;;16.60;53.60;;;;;;5040994;28;20465;-24
2021/09/16 02:45:03;;;;;;;1.80;0.90;;;16.50;54.00;;;;;;5040315;28;21174;-24
2021/09/16 02:47:35;;;;;;;2.33;1.20;;;16.50;54.40;;;;;;5043906;28;20473;-24
2021/09/16 02:50:07;;;;;;;2.10;1.30;;;16.40;54.80;;;;;;5045446;28;20465;-24
2021/09/16 02:52:38;;;;;;;1.63;0.97;;;16.30;55.10;;;;;;5044737;28;20515;-24
2021/09/16 02:55:12;;;;;;;2.40;1.30;;;16.30;55.50;;;;;;5044398;28;20461;-24
2021/09/16 02:57:43;;;;;;;3.33;1.03;;;16.20;55.90;;;;;;5044689;28;20507;-24
2021/09/16 03:00:15;;;;;;;6.00;1.10;;;16.10;56.30;;;;;;5041810;28;20476;-24
2021/09/16 03:02:46;;;;;;;3.40;0.90;;;16.10;56.60;;;;;;5044709;28;20523;-24
2021/09/16 03:05:17;;;;;;;2.60;1.20;;;16.00;57.20;;;;;;5045018;28;20588;-24
2021/09/16 03:07:52;;;;;;;3.83;0.93;;;15.90;57.30;;;;;;5042348;28;20448;-24
2021/09/16 03:10:24;;;;;;;2.07;1.00;;;15.90;57.60;;;;;;5044095;28;20481;-25
2021/09/16 03:12:56;;;;;;;1.90;1.20;;;15.80;57.80;;;;;;5041253;28;20484;-24
2021/09/16 03:15:27;;;;;;;4.10;1.40;;;15.80;58.70;;;;;;5039706;28;20536;-24
2021/09/16 03:17:58;;;;;;;1.93;0.90;;;15.60;58.70;;;;;;5042928;28;20522;-24
2021/09/16 03:20:29;;;;;;;2.03;1.00;;;15.60;59.10;;;;;;5044543;28;20492;-24
2021/09/16 03:23:00;;;;;;;2.20;1.27;;;15.60;59.50;;;;;;5044325;28;20473;-24
2021/09/16 03:25:32;;;;;;;3.47;1.00;;;15.50;60.00;;;;;;5045044;28;20488;-24
2021/09/16 03:28:03;;;;;;;1.67;1.40;;;15.40;61.30;;;;;;5044413;28;20453;-24
2021/09/16 03:30:34;;;;;;;1.97;1.17;;;15.30;61.80;;;;;;5044416;28;20457;-24
2021/09/16 03:33:05;;;;;;;2.37;1.07;;;15.30;62.60;;;;;;5043563;28;20484;-24
2021/09/16 03:35:36;;;;;;;2.93;1.60;;;15.30;62.10;;;;;;5044375;28;20481;-24
2021/09/16 03:38:08;;;;;;;1.27;1.17;;;15.30;62.70;;;;;;5044333;28;20461;-24
2021/09/16 03:40:40;;;;;;;2.40;1.30;;;15.20;62.30;;;;;;5044414;28;20453;-24
2021/09/16 03:43:11;;;;;;;2.03;0.90;;;15.20;62.40;;;;;;5044235;28;20472;-24
2021/09/16 03:45:42;;;;;;;1.77;1.17;;;15.20;62.80;;;;;;5042552;28;20473;-24
2021/09/16 03:48:13;;;;;;;1.93;1.60;;;15.20;63.00;;;;;;5043837;28;20825;-24
2021/09/16 03:50:44;;;;;;;3.60;1.53;;;15.10;63.40;;;;;;5043174;28;20477;-24
2021/09/16 03:53:16;;;;;;;3.17;1.10;;;15.00;62.90;;;;;;5043600;28;20495;-24
2021/09/16 03:55:48;;;;;;;2.10;1.07;;;15.00;64.20;;;;;;5042555;28;20464;-24
2021/09/16 03:58:19;;;;;;;2.20;0.80;;;15.00;64.20;;;;;;5042062;28;20449;-24
2021/09/16 04:00:50;;;;;;;2.67;1.13;;;15.00;64.90;;;;;;5041716;28;20444;-25
2021/09/16 04:03:22;;;;;;;1.30;0.93;;;14.90;64.60;;;;;;5004747;28;20459;-24
2021/09/16 04:05:53;;;;;;;3.80;1.10;;;14.90;65.00;;;;;;5003488;28;20556;-24
2021/09/16 04:08:24;;;;;;;1.20;0.90;;;14.80;65.00;;;;;;5003944;28;20487;-24
2021/09/16 04:10:56;;;;;;;2.30;1.50;;;14.70;65.90;;;;;;4998873;28;20780;-23
2021/09/16 04:13:27;;;;;;;1.77;1.40;;;14.70;66.90;;;;;;5004332;28;20499;-24
2021/09/16 04:15:58;;;;;;;1.80;1.00;;;14.60;67.10;;;;;;5003055;28;20447;-24
2021/09/16 04:18:29;;;;;;;1.30;1.20;;;14.60;67.60;;;;;;5000830;28;20486;-24
2021/09/16 04:21:00;;;;;;;3.53;1.40;;;14.60;67.60;;;;;;5001410;28;20467;-24
2021/09/16 04:23:31;;;;;;;4.83;1.30;;;14.70;67.80;;;;;;5003707;28;20455;-25
2021/09/16 04:26:04;;;;;;;7.07;1.33;;;14.60;68.60;;;;;;5003915;28;20519;-23
2021/09/16 04:28:35;;;;;;;5.73;1.50;;;14.50;69.40;;;;;;5004144;28;20452;-23
2021/09/16 04:31:05;;;;;;;2.30;1.10;;;14.40;69.30;;;;;;5003301;28;20455;-23
2021/09/16 04:33:36;;;;;;;1.50;1.33;;;14.30;70.20;;;;;;5004143;28;20454;-23
2021/09/16 04:36:07;;;;;;;4.70;1.50;;;14.20;70.50;;;;;;5003921;28;20479;-24
2021/09/16 04:38:38;;;;;;;1.30;1.00;;;14.20;70.80;;;;;;5003258;28;20455;-24
2021/09/16 04:41:11;;;;;;;1.27;1.17;;;14.20;71.10;;;;;;5003707;28;20498;-24
2021/09/16 04:43:42;;;;;;;2.53;1.00;;;14.20;70.70;;;;;;5004304;28;20511;-24
2021/09/16 04:46:13;;;;;;;2.77;1.30;;;14.30;70.90;;;;;;5003306;28;20529;-23
2021/09/16 04:48:44;;;;;;;2.80;1.10;;;14.20;71.20;;;;;;5003279;28;20511;-24
2021/09/16 04:51:15;;;;;;;6.87;1.57;;;14.10;71.80;;;;;;5003796;28;20447;-24
2021/09/16 04:53:46;;;;;;;2.20;1.27;;;14.10;71.80;;;;;;5003906;28;20852;-24
2021/09/16 04:56:18;;;;;;;1.77;1.00;;;14.10;72.20;;;;;;4996270;28;20460;-24
2021/09/16 04:58:50;;;;;;;2.60;1.33;;;13.90;73.40;;;;;;5001831;28;20542;-24
2021/09/16 05:01:22;;;;;;;5.20;1.20;;;13.80;74.40;;;;;;5009758;28;20515;-24
2021/09/16 05:03:53;;;;;;;3.73;1.10;;;13.80;74.50;;;;;;5026361;28;20498;-24
2021/09/16 05:06:24;;;;;;;2.93;1.60;;;13.80;74.20;;;;;;5042029;28;20519;-23
2021/09/16 05:08:55;;;;;;;5.00;1.50;;;13.80;74.30;;;;;;5039125;28;20453;-23
2021/09/16 05:11:28;;;;;;;2.87;1.27;;;13.80;74.40;;;;;;5034721;28;20461;-23
2021/09/16 05:14:00;;;;;;;3.33;1.23;;;13.80;74.90;;;;;;5042589;28;20438;-23
2021/09/16 05:16:31;;;;;;;3.70;1.37;;;13.80;75.30;;;;;;5041511;28;20461;-22
2021/09/16 05:19:02;;;;;;;3.80;1.30;;;13.70;75.70;;;;;;5041386;28;20495;-23
2021/09/16 05:21:33;;;;;;;4.97;1.77;;;13.70;75.80;;;;;;5042692;28;20632;-22
2021/09/16 05:24:05;;;;;;;4.27;1.13;;;13.70;75.80;;;;;;5042408;28;20460;-24
2021/09/16 05:26:38;;;;;;;3.03;1.10;;;13.70;75.90;;;;;;5042175;28;20561;-24
2021/09/16 05:29:09;;;;;;;3.33;1.23;;;13.70;76.00;;;;;;5042009;28;20449;-24
2021/09/16 05:31:41;;;;;;;4.00;1.60;;;13.70;76.30;;;;;;5041548;28;20442;-24
2021/09/16 05:34:12;;;;;;;2.30;0.97;;;13.70;76.40;;;;;;5042764;28;20473;-24
2021/09/16 05:36:46;;;;;;;2.37;1.47;;;13.60;76.50;;;;;;5042157;28;20485;-24
2021/09/16 05:39:17;;;;;;;2.67;1.30;;;13.60;77.00;;;;;;5042818;28;20481;-24
2021/09/16 05:41:50;;;;;;;1.90;0.93;;;13.60;77.20;;;;;;5041182;28;20449;-24
2021/09/16 05:44:21;;;;;;;2.07;0.97;;;13.60;77.10;;;;;;5042543;28;20442;-24
2021/09/16 05:46:52;;;;;;;1.90;1.00;;;13.60;77.50;;;;;;5041515;28;20500;-24
2021/09/16 05:49:24;;;;;;;3.93;1.13;;;13.50;77.90;;;;;;5041974;28;20453;-24
2021/09/16 05:51:55;;;;;;;1.53;0.97;;;13.50;78.60;;;;;;5042222;28;20460;-24
2021/09/16 05:54:26;;;;;;;3.53;1.20;;;13.60;78.90;;;;;;5042268;28;20504;-24
2021/09/16 05:56:59;;;;;;;2.10;1.30;;;13.50;79.60;;;;;;5042508;28;20484;-24
2021/09/16 05:59:30;;;;;;;1.93;0.77;;;13.50;80.00;;;;;;5042214;28;20536;-24
2021/09/16 06:02:21;;;;;;;2.57;1.13;;;13.40;80.30;;;;;;5041337;28;20473;-24
2021/09/16 06:04:52;;;;;;;2.23;1.00;;;13.50;81.10;;;;;;5042195;28;20445;-24
2021/09/16 06:07:23;;;;;;;2.80;1.20;;;13.40;81.50;;;;;;5042025;28;20595;-24
2021/09/16 06:09:54;;;;;;;2.67;1.43;;;13.40;82.20;;;;;;5041500;28;21055;-24
2021/09/16 06:12:29;;;;;;;2.93;0.90;;;13.30;82.90;;;;;;5039851;28;20453;-24
2021/09/16 06:15:01;;;;;;;5.53;1.27;;;13.30;83.30;;;;;;5042477;28;20908;-24
2021/09/16 06:17:32;;;;;;;2.33;1.33;;;13.20;84.10;;;;;;5041410;28;20476;-24
2021/09/16 06:20:04;;;;;;;2.33;1.00;;;13.20;85.30;;;;;;5044634;28;20457;-24
2021/09/16 06:22:36;;;;;;;3.03;1.50;;;13.10;85.80;;;;;;5046281;28;20449;-24
2021/09/16 06:25:08;;;;;;;3.87;1.30;;;13.00;86.70;;;;;;5045917;28;20464;-24
2021/09/16 06:27:41;;;;;;;1.90;1.40;;;13.00;87.50;;;;;;5045569;28;20797;-30
2021/09/16 06:30:13;;;;;;;3.63;1.80;;;12.90;88.90;;;;;;5044955;28;20477;-24
2021/09/16 06:32:47;;;;;;;3.50;1.30;;;12.80;89.40;;;;;;5045068;28;20727;-24
2021/09/16 06:35:20;;;;;;;3.13;1.23;;;12.70;90.20;;;;;;5045572;28;20453;-24
2021/09/16 06:37:51;;;;;;;2.40;1.53;;;12.90;90.00;;;;;;5044834;28;20983;-24
2021/09/16 06:40:22;;;;;;;2.93;1.40;;;12.90;90.00;;;;;;5045316;28;20457;-24
2021/09/16 06:42:55;;;;;;;3.17;1.23;;;12.90;90.50;;;;;;5045820;28;20488;-24
2021/09/16 06:45:27;;;;;;;2.00;1.00;;;12.80;91.00;;;;;;5045307;28;21107;-23
2021/09/16 06:47:58;;;;;;;5.80;1.90;;;12.70;91.50;;;;;;5044986;28;20555;-24
2021/09/16 06:50:30;;;;;;;6.00;1.83;;;12.70;91.90;;;;;;5044254;28;20505;-24
2021/09/16 06:53:01;;;;;;;3.50;1.70;;;12.70;92.20;;;;;;5045609;28;20445;-24
2021/09/16 06:55:32;;;;;;;3.20;1.30;;;12.70;92.60;;;;;;5045163;28;20449;-24
2021/09/16 06:58:05;;;;;;;5.47;1.00;;;12.70;92.50;;;;;;5044999;28;20533;-24
2021/09/16 07:00:37;;;;;;;4.00;1.37;;;12.70;92.80;;;;;;5044837;28;20488;-24
2021/09/16 07:03:08;;;;;;;6.93;1.70;;;12.60;93.30;;;;;;5045029;28;20488;-24
2021/09/16 07:05:40;;;;;;;3.67;1.47;;;12.60;93.40;;;;;;5044767;28;20568;-24
2021/09/16 07:08:11;;;;;;;2.57;1.13;;;12.60;93.70;;;;;;5041022;28;20622;-24
2021/09/16 07:10:43;;;;;;;5.30;1.30;;;12.60;94.00;;;;;;5043863;28;20461;-24
2021/09/16 07:13:16;;;;;;;2.33;1.27;;;12.60;94.20;;;;;;5045585;28;20583;-24
2021/09/16 07:15:47;;;;;;;4.00;1.53;;;12.50;94.70;;;;;;5044659;28;20452;-24
2021/09/16 07:18:18;;;;;;;4.80;1.40;;;12.40;95.20;;;;;;5045314;28;20574;-23
2021/09/16 07:20:50;;;;;;;2.47;1.03;;;12.30;95.80;;;;;;5039940;28;20496;-24
2021/09/16 07:23:21;;;;;;;2.73;1.30;;;12.30;96.30;;;;;;5044961;28;20477;-24
2021/09/16 07:25:52;;;;;;;2.20;1.30;;;12.20;96.80;;;;;;5044331;28;20453;-24
2021/09/16 07:28:25;;;;;;;2.90;1.10;;;12.20;97.70;;;;;;5044936;28;20484;-24
2021/09/16 07:30:56;;;;;;;4.97;1.10;;;12.10;97.90;;;;;;5042878;28;20511;-24
2021/09/16 07:33:27;;;;;;;2.70;0.93;;;12.00;98.70;;;;;;5045309;28;20505;-24
2021/09/16 07:35:59;;;;;;;5.10;1.40;;;11.80;99.20;;;;;;5043078;28;20449;-24
2021/09/16 07:38:30;;;;;;;2.27;0.87;;;11.70;99.60;;;;;;5044537;28;20481;-24
2021/09/16 07:41:01;;;;;;;4.13;1.27;;;11.70;99.90;;;;;;5043987;28;20461;-23
2021/09/16 07:43:34;;;;;;;2.03;1.10;;;11.70;99.90;;;;;;5045047;28;20470;-23
2021/09/16 07:46:05;;;;;;;5.60;2.90;;;11.50;99.90;;;;;;5042932;28;20457;-24
2021/09/16 07:48:37;;;;;;;3.40;1.30;;;11.40;99.90;;;;;;5044539;28;20500;-24
2021/09/16 07:51:13;;;;;;;5.50;1.70;;;11.40;99.90;;;;;;5043762;28;20516;-24
2021/09/16 07:53:44;;;;;;;2.13;1.20;;;11.30;99.90;;;;;;5044482;28;20506;-24
2021/09/16 07:56:15;;;;;;;3.77;1.47;;;11.20;99.90;;;;;;5043736;28;20529;-24
2021/09/16 07:58:48;;;;;;;3.53;1.30;;;11.10;99.90;;;;;;5044211;28;20521;-24
2021/09/16 08:01:20;;;;;;;3.27;1.53;;;11.20;99.90;;;;;;5042214;28;20647;-24
2021/09/16 08:03:51;;;;;;;3.75;1.27;;;11.20;99.90;;;;;;5044858;28;20947;-24
2021/09/16 08:06:23;;;;;;;3.53;1.60;;;11.10;99.90;;;;;;5043452;28;20218;-24
2021/09/16 08:08:54;;;;;;;5.22;1.63;;;11.10;99.90;;;;;;5044310;28;20484;-24
2021/09/16 08:11:25;;;;;;;2.75;1.15;;;11.00;99.90;;;;;;5042729;28;20203;-24
2021/09/16 08:13:58;;;;;;;4.10;1.50;;;11.00;99.90;;;;;;5043648;28;20234;-24
2021/09/16 08:16:30;;;;;;;5.25;1.80;;;10.80;99.90;;;;;;5042890;28;20328;-24
2021/09/16 08:19:01;;;;;;;5.90;1.45;;;10.80;99.90;;;;;;5044210;28;20199;-24
2021/09/16 08:21:32;;;;;;;3.35;1.20;;;10.70;99.90;;;;;;5042501;28;20206;-23
2021/09/16 08:24:04;;;;;;;5.00;1.43;;;10.60;99.90;;;;;;5043614;28;20290;-24
2021/09/16 08:26:35;;;;;;;3.25;1.60;;;10.60;99.90;;;;;;5043670;28;20573;-24
2021/09/16 08:29:08;;;;;;;5.20;1.73;;;10.60;99.90;;;;;;5043401;28;20250;-24
2021/09/16 08:31:39;;;;;;;3.55;1.70;;;10.50;99.90;;;;;;5042106;28;20504;-24
2021/09/16 08:34:11;;;;;;;3.70;1.63;;;10.50;99.90;;;;;;5043865;28;20662;-24
2021/09/16 08:36:43;;;;;;;2.25;1.58;;;10.50;99.90;;;;;;5042888;28;20544;-24
2021/09/16 08:39:14;;;;;;;5.38;1.80;;;10.50;99.90;;;;;;5028980;28;20241;-23
2021/09/16 08:41:45;;;;;;;6.15;2.17;;;10.50;99.90;;;;;;5042848;28;20257;-24
2021/09/16 08:44:19;;;;;;;4.60;1.80;;;10.40;99.90;;;;;;5042514;28;20261;-24
2021/09/16 08:46:50;;;;;;;4.90;1.67;;;10.40;99.90;;;;;;5042537;28;20218;-24
2021/09/16 08:49:22;;;;;;;5.35;1.67;;;10.40;99.90;;;;;;5034814;28;20226;-24
2021/09/16 08:51:53;;;;;;;4.38;1.40;;;10.40;99.90;;;;;;5042914;28;20230;-24
2021/09/16 08:54:27;;;;;;;7.45;1.88;;;10.30;99.90;;;;;;5043260;28;20229;-24
2021/09/16 08:57:00;;;;;;;2.63;1.80;;;10.20;99.90;;;;;;5042864;28;20205;-23
2021/09/16 08:59:36;;;;;;;1.60;1.35;;;10.00;99.90;;;;;;5043668;28;20538;-24
2021/09/16 09:02:08;;;;;;;3.30;1.40;;;10.00;99.90;;;;;;5041470;28;20254;-23
2021/09/16 09:04:39;;;;;;;3.85;1.80;;;10.00;99.90;;;;;;5043751;28;20214;-23
2021/09/16 09:07:14;;;;;;;2.45;1.50;;;9.80;99.90;;;;;;5039392;28;20222;-23
2021/09/16 09:09:45;;;;;;;3.08;1.40;;;9.90;99.90;;;;;;5035994;28;20234;-23
2021/09/16 09:12:18;;;;;;;4.60;1.50;;;9.90;99.90;;;;;;5041486;28;20294;-23
2021/09/16 09:14:55;;;;;;;6.78;2.63;;;9.80;99.90;;;;;;5043226;28;20209;-23
2021/09/16 09:17:30;;;;;;;2.65;1.50;;;9.80;99.90;;;;;;5040740;28;20217;-23
2021/09/16 09:20:08;;;;;;;6.28;1.77;;;9.80;99.90;;;;;;5042549;28;20277;-23
2021/09/16 09:22:41;;;;;;;2.10;1.40;;;9.60;99.90;;;;;;5041723;28;20214;-23
2021/09/16 09:25:14;;;;;;;6.13;1.60;;;9.70;99.90;;;;;;5043041;28;20234;-23
2021/09/16 09:27:51;;;;;;;2.22;1.38;;;9.70;99.90;;;;;;5042020;28;20614;-24
2021/09/16 09:30:28;;;;;;;2.50;1.58;;;9.70;99.90;;;;;;5039961;28;20206;-24
2021/09/16 09:33:00;;;;;;;2.35;1.67;;;9.70;99.90;;;;;;5035854;28;20254;-24
2021/09/16 09:35:36;;;;;;;4.15;1.80;;;9.70;99.90;;;;;;5042409;28;20237;-24
2021/09/16 09:38:16;;;;;;;9.13;2.03;;;9.50;99.90;;;;;;5040229;28;20301;-24
2021/09/16 09:40:50;;;;;;;3.00;1.77;;;9.50;99.90;;;;;;5042164;28;20209;-24
2021/09/16 09:43:25;;;;;;;3.15;1.55;;;9.50;99.90;;;;;;5041985;28;20199;-24
2021/09/16 09:46:07;;;;;;;3.20;1.67;;;9.50;99.90;;;;;;5041768;28;20206;-24
2021/09/16 09:48:43;;;;;;;3.35;2.33;;;9.50;99.90;;;;;;5042042;28;20233;-24
2021/09/16 09:51:16;;;;;;;2.63;1.55;;;9.50;99.90;;;;;;5041959;28;20205;-23
2021/09/16 09:53:48;;;;;;;3.25;1.63;;;9.40;99.90;;;;;;5041957;28;20198;-24
2021/09/16 09:56:36;;;;;;;2.90;1.70;;;9.40;99.90;;;;;;5042162;28;20261;-24
2021/09/16 09:59:07;;;;;;;1.38;1.10;;;9.30;99.90;;;;;;5042309;28;20202;-23
2021/09/16 10:01:40;;;;;;;2.95;1.50;;;9.20;99.90;;;;;;5040324;28;20280;-23
2021/09/16 10:04:29;;;;;;;5.55;2.00;;;9.10;99.90;;;;;;5026633;28;20206;-23
2021/09/16 10:07:02;;;;;;;4.88;2.67;;;9.20;99.90;;;;;;5041974;28;20198;-23
2021/09/16 10:09:33;;;;;;;5.20;2.30;;;9.20;99.90;;;;;;5042036;28;20218;-23
2021/09/16 10:12:04;;;;;;;3.92;1.77;;;9.20;99.90;;;;;;5041052;28;20219;-23
2021/09/16 10:14:36;;;;;;;4.88;1.85;;;9.20;99.90;;;;;;5028721;28;20242;-24
2021/09/16 10:17:09;;;;;;;5.72;1.77;;;9.20;99.90;;;;;;5039973;28;20230;-23
2021/09/16 10:19:43;;;;;;;1.98;1.38;;;9.20;99.90;;;;;;5042313;28;20213;-23
2021/09/16 10:22:15;;;;;;;4.18;2.03;;;9.20;99.90;;;;;;5041014;28;20245;-23
2021/09/16 10:24:47;;;;;;;1.98;1.63;;;9.10;99.90;;;;;;5041840;28;20285;-23
2021/09/16 10:27:33;;;;;;;2.85;1.65;;;8.90;99.90;;;;;;5042416;28;20230;-23
2021/09/16 10:30:36;;;;;;;2.22;1.35;;;8.70;99.90;;;;;;5042413;28;20236;-23
2021/09/16 10:33:11;;;;;;;4.18;1.65;;;8.70;99.90;;;;;;5039298;28;20266;-23
2021/09/16 10:35:44;;;;;;;4.72;1.85;;;8.70;99.90;;;;;;5041799;28;20245;-23
2021/09/16 10:38:31;;;;;;;2.30;2.10;;;8.70;99.90;;;;;;5042095;28;20257;-23
2021/09/16 10:41:23;;;;;;;3.38;1.80;;;8.70;99.90;;;;;;5040828;28;20203;-23
2021/09/16 10:44:14;;;;;;;2.25;1.60;;;8.60;99.90;;;;;;5041923;28;20225;-23
2021/09/16 10:46:46;;;;;;;2.47;1.70;;;8.70;99.90;;;;;;5040989;28;20659;-30
2021/09/16 10:49:37;;;;;;;3.08;1.77;;;8.60;99.90;;;;;;5042062;28;20238;-23
2021/09/16 10:52:24;;;;;;;3.05;1.98;;;8.50;99.90;;;;;;5041677;28;20206;-23
2021/09/16 10:54:56;;;;;;;2.17;1.33;;;8.60;99.90;;;;;;5041661;28;20202;-23
2021/09/16 10:57:38;;;;;;;2.35;1.30;;;8.70;99.90;;;;;;5042050;28;20191;-23
2021/09/16 11:00:13;;;;;;;2.22;1.58;;;8.60;99.90;;;;;;5041512;28;20234;-23
2021/09/16 11:03:14;;;;;;;3.28;2.05;;;8.50;99.90;;;;;;5040356;28;20292;-23
2021/09/16 11:05:53;;;;;;;5.60;1.65;;;8.50;99.90;;;;;;5033383;28;20213;-23
2021/09/16 11:08:45;;;;;;;3.47;1.80;;;8.40;99.90;;;;;;5028569;28;20207;-23
2021/09/16 11:11:17;;;;;;;1.80;1.50;;;8.40;99.90;;;;;;5031017;28;20336;-23
2021/09/16 11:13:53;;;;;;;4.65;2.00;;;8.40;99.90;;;;;;5045067;28;20241;-23
2021/09/16 11:16:27;;;;;;;3.72;1.75;;;8.40;99.90;;;;;;5044092;28;20198;-24
2021/09/16 11:19:09;;;;;;;5.05;1.73;;;8.30;99.90;;;;;;5044669;28;20812;-23
2021/09/16 11:21:42;;;;;;;5.80;1.75;;;8.40;99.90;;;;;;5044790;28;20191;-24
2021/09/16 11:24:13;;;;;;;2.03;1.50;;;8.30;99.90;;;;;;5044646;28;20329;-23
2021/09/16 11:26:47;;;;;;;3.50;2.20;;;8.30;99.90;;;;;;5044664;28;20275;-23
2021/09/16 11:29:18;;;;;;;3.33;2.15;;;8.40;99.90;;;;;;5044712;28;20264;-23
2021/09/16 11:31:49;;;;;;;4.50;2.00;;;8.30;99.90;;;;;;5044071;28;20241;-23
2021/09/16 11:34:21;;;;;;;1.58;1.48;;;8.30;99.90;;;;;;5044950;28;20194;-23
2021/09/16 11:37:18;;;;;;;2.65;1.77;;;8.30;99.90;;;;;;5044822;28;20237;-23
2021/09/16 11:39:59;;;;;;;3.33;1.80;;;8.20;99.90;;;;;;5044979;28;20203;-23
2021/09/16 11:42:32;;;;;;;3.25;1.67;;;8.20;99.90;;;;;;5044853;28;20210;-23
2021/09/16 11:45:12;;;;;;;1.52;1.42;;;8.20;99.90;;;;;;5044062;28;20207;-23
2021/09/16 11:47:52;;;;;;;4.32;2.53;;;8.20;99.90;;;;;;5043292;28;20221;-23
2021/09/16 11:50:26;;;;;;;5.20;2.70;;;8.20;99.90;;;;;;5044682;28;20226;-23
2021/09/16 11:53:02;;;;;;;4.20;1.70;;;8.10;99.90;;;;;;5044280;28;20202;-23
2021/09/16 11:55:35;;;;;;;3.70;1.92;;;8.10;99.90;;;;;;5044759;28;20222;-23
2021/09/16 11:58:14;;;;;;;2.33;1.70;;;8.00;99.90;;;;;;5029199;28;20202;-23
2021/09/16 12:00:48;;;;;;;4.05;1.95;;;8.00;99.90;;;;;;5033764;28;20628;-23
2021/09/16 12:03:24;;;;;;;4.63;1.63;;;8.00;99.90;;;;;;5042536;28;20298;-23
2021/09/16 12:05:56;;;;;;;2.10;1.90;;;7.90;99.90;;;;;;5042233;28;20218;-23
2021/09/16 12:08:31;;;;;;;2.85;1.58;;;7.90;99.90;;;;;;5044007;28;20247;-23
2021/09/16 12:11:04;;;;;;;4.47;1.85;;;7.90;99.90;;;;;;5044057;28;20283;-23
2021/09/16 12:13:39;;;;;;;1.77;1.40;;;7.90;99.90;;;;;;5045003;28;20293;-23
2021/09/16 12:16:13;;;;;;;4.05;2.05;;;7.90;99.90;;;;;;5042872;28;20282;-23
2021/09/16 12:18:47;;;;;;;2.65;1.80;;;7.90;99.90;;;;;;5044510;28;20289;-23
2021/09/16 12:21:21;;;;;;;2.72;1.85;;;7.90;99.90;;;;;;5043372;28;20250;-23
2021/09/16 12:23:55;;;;;;;2.10;1.90;;;7.80;99.90;;;;;;5042558;28;20237;-23
2021/09/16 12:26:27;;;;;;;3.90;2.03;;;7.90;99.90;;;;;;5043787;28;20187;-29
2021/09/16 12:29:01;;;;;;;4.10;1.95;;;7.80;99.90;;;;;;5043646;28;20237;-23
2021/09/16 12:31:34;;;;;;;4.40;1.65;;;7.90;99.90;;;;;;5042510;28;20217;-23
2021/09/16 12:34:10;;;;;;;2.95;1.80;;;7.70;99.90;;;;;;5043297;28;20199;-23
2021/09/16 12:36:52;;;;;;;1.90;1.63;;;7.70;99.90;;;;;;5043575;28;20222;-23
2021/09/16 12:39:25;;;;;;;3.65;1.73;;;7.80;99.90;;;;;;5044292;28;20198;-23
2021/09/16 12:41:58;;;;;;;2.70;1.50;;;7.80;99.90;;;;;;5042562;28;20207;-23
2021/09/16 12:44:30;;;;;;;4.63;2.03;;;7.80;99.90;;;;;;5043966;28;20199;-23
2021/09/16 12:47:09;;;;;;;1.90;1.80;;;7.80;99.90;;;;;;5043510;28;20496;-23
2021/09/16 12:49:51;;;;;;;6.90;2.38;;;7.70;99.90;;;;;;5043859;28;20241;-23
2021/09/16 12:52:23;;;;;;;3.28;2.25;;;7.70;99.90;;;;;;5043105;28;20526;-23
2021/09/16 12:54:58;;;;;;;3.10;1.88;;;7.70;99.90;;;;;;5043292;28;20199;-23
2021/09/16 12:57:30;;;;;;;3.53;1.83;;;7.70;99.90;;;;;;5043461;28;20256;-23
2021/09/16 13:00:03;;;;;;;2.80;2.05;;;7.70;99.90;;;;;;5043957;28;20218;-23
2021/09/16 13:02:54;;;;;;;4.90;2.30;;;7.70;99.90;;;;;;5042432;28;20246;-21
2021/09/16 13:05:26;;;;;;;3.70;1.92;;;7.70;99.90;;;;;;5043363;28;20199;-22
2021/09/16 13:08:08;;;;;;;5.18;2.60;;;7.70;99.90;;;;;;5034110;28;20214;-21
2021/09/16 13:10:42;;;;;;;3.50;2.00;;;7.70;99.90;;;;;;5043314;28;20297;-21
2021/09/16 13:13:14;;;;;;;2.90;1.80;;;7.70;99.90;;;;;;5043320;28;20206;-22
2021/09/16 13:15:47;;;;;;;4.85;2.25;;;7.60;99.90;;;;;;5042780;28;20256;-21
2021/09/16 13:18:18;;;;;;;4.95;2.47;;;7.60;99.90;;;;;;5027467;28;20190;-22
2021/09/16 13:20:49;;;;;;;6.78;2.38;;;7.60;99.90;;;;;;5043084;28;20712;-22